Portada
METAR-TAF:

METAR-TAF

Aeropuertos :

Bou Saâda, Argelia

latitud: 35-20N, longitud: 004-12E, altitud: 461 m

Observación

El informe se hizo hace 48 minutos, a las 15:00 UTC
Viento 10 kt del noroeste
Temperatura 16°C
Humedad 42%
Presión 1030 hPa
Visibilidad 10 km o más
sin nubes por debajo de 1500 m y sin presencia de cumulonimbus.

METAR: DAAD 171500Z 31010KT CAVOK 16/03 Q1030

Hora: 16:48 (15:48 UTC)

Pronóstico

El informe se hizo hace 1 hora y 48 minutos, a las 14:00 UTC
Pronóstico válido del 17 a las 15 UTC al 17 a las 24 UTC
Viento 12 kt del oeste-noroeste
Visibilidad 10 km o más
sin nubes por debajo de 1500 m y sin presencia de cumulonimbus.
Evolucionando progresivamente
del 17 a las 20 UTC al 17 a las 24 UTC
Viento 2 kt con dirección variable

TAF: DAAD 171400Z 1715/1724 30012KT CAVOK BECMG 1720/1724 VRB02KT

Observaciones y pronósticos meteorológicos de más de 4000 aeropuertos (mensajes METAR y TAF).

Los puntos amarillos y rojos representan las estaciones disponibles.

Ponga el ratón en el punto deseado para ver el nombre de la estación.

Haga clic para ver las observaciones y los pronósticos meteorológicos.

Para cambiar el mapa : haga clic en los botones verdes con una cruz de color negro para hacer un zoom, en el botón verde con un guión para alejar o en las flechas verdes para mapas adyacentes.


METAR-TAF: